Mehama, Oregon
Current Conditions -  °F | °C
As of 6:40 AM on Tuesday 27 Jan 2015 (Local Time) from KSLE Reporting Station
Haze Haze  
Wind Chill: 40°   Ceiling: 200
Heat Index: 43°   Visibility: 0.75mi
Dew Point: 42°   Wind: 5mph
Humidity: 97%   Direction: 130°SE
Pressure: 30.05"   Gusts: NA
Location:  44.79°N, 122.62°W
Report Text: KSLE 271440Z AUTO 13004KT 3/4SM R31/3000VP6000FT BR OVC002 06/06 A3005 RMK AO2 T00610056
Loading
Personal Weather Stations






























Interactive Weather Map New forecast layout! Learn more

10-Day Weather Forecast

Advertisements
Track Severe Weather on mobile